Time;durP1;ratioP1;P1;durP2;ratioP2;P2;SDS_P1;SDS_P2;PMS_P1;PMS_P2;Temp;Humidity;BMP_temperature;BMP_pressure;BME280_temperature;BME280_humidity;BME280_pressure;Samples;Min_cycle;Max_cycle;Signal;HPM_P1;HPM_P2
2022/12/21 00:01:26;;;;;;;4.50;1.43;;;7.80;99.90;;;;;;5030773;28;20425;-71
2022/12/21 00:03:55;;;;;;;3.33;1.50;;;7.90;99.90;;;;;;5031379;28;20532;-71
2022/12/21 00:06:22;;;;;;;2.30;1.30;;;7.90;99.90;;;;;;5031805;28;20424;-71
2022/12/21 00:08:48;;;;;;;2.73;1.40;;;7.90;99.90;;;;;;5031365;28;20512;-71
2022/12/21 00:11:15;;;;;;;5.87;2.00;;;7.90;99.90;;;;;;5031235;28;20955;-71
2022/12/21 00:13:41;;;;;;;2.50;1.50;;;7.90;99.90;;;;;;5031256;28;20508;-71
2022/12/21 00:16:12;;;;;;;2.90;1.30;;;7.90;99.90;;;;;;5028278;28;20515;-71
2022/12/21 00:18:38;;;;;;;2.37;1.53;;;8.00;99.90;;;;;;5028326;28;21067;-71
2022/12/21 00:21:06;;;;;;;3.20;1.40;;;8.00;99.90;;;;;;5027131;28;20433;-71
2022/12/21 00:23:32;;;;;;;8.53;1.73;;;7.90;99.90;;;;;;5035066;28;20194;-71
2022/12/21 00:25:59;;;;;;;3.20;1.53;;;7.90;99.90;;;;;;5035111;28;20417;-71
2022/12/21 00:28:25;;;;;;;1.70;1.30;;;8.00;99.90;;;;;;5047645;28;20484;-71
2022/12/21 00:30:51;;;;;;;4.97;2.03;;;7.90;99.90;;;;;;5050463;28;20472;-71
2022/12/21 00:33:16;;;;;;;2.80;1.30;;;7.90;99.90;;;;;;5033819;28;20186;-71
2022/12/21 00:35:51;;;;;;;3.20;1.47;;;7.80;99.90;;;;;;5031193;28;20219;-71
2022/12/21 00:38:18;;;;;;;2.77;1.77;;;7.80;99.90;;;;;;5049042;28;20201;-71
2022/12/21 00:40:44;;;;;;;2.33;1.50;;;7.80;99.90;;;;;;5051284;28;20412;-71
2022/12/21 00:43:11;;;;;;;2.60;1.40;;;7.80;99.90;;;;;;5050423;28;20424;-71
2022/12/21 00:45:37;;;;;;;2.47;1.13;;;7.80;99.90;;;;;;5047731;28;20428;-71
2022/12/21 00:48:02;;;;;;;5.00;1.47;;;7.70;99.90;;;;;;5046583;28;20431;-71
2022/12/21 00:50:28;;;;;;;4.20;1.20;;;7.70;99.90;;;;;;5041838;28;20464;-71
2022/12/21 00:52:54;;;;;;;4.30;2.20;;;7.70;99.90;;;;;;5050706;28;20178;-71
2022/12/21 00:55:19;;;;;;;4.97;1.57;;;7.70;99.90;;;;;;5050709;28;20257;-71
2022/12/21 00:57:45;;;;;;;2.33;1.37;;;7.60;99.90;;;;;;5050965;28;20202;-71
2022/12/21 01:00:11;;;;;;;3.87;1.80;;;7.60;99.90;;;;;;5050130;28;20193;-71
2022/12/21 01:02:37;;;;;;;3.70;1.47;;;7.60;99.90;;;;;;5037168;28;20181;-71
2022/12/21 01:05:03;;;;;;;2.10;1.50;;;7.50;99.90;;;;;;5050766;28;20446;-71
2022/12/21 01:07:29;;;;;;;3.60;1.30;;;7.50;99.90;;;;;;5054836;28;20185;-71
2022/12/21 01:09:55;;;;;;;3.60;1.90;;;7.40;99.90;;;;;;5041089;28;20421;-71
2022/12/21 01:12:20;;;;;;;2.40;1.40;;;7.40;99.90;;;;;;5043722;28;20623;-71
2022/12/21 01:14:46;;;;;;;7.80;2.30;;;7.30;99.90;;;;;;5046606;28;20188;-71
2022/12/21 01:17:11;;;;;;;3.43;1.83;;;7.30;99.90;;;;;;5049360;28;20186;-71
2022/12/21 01:19:37;;;;;;;4.03;1.63;;;7.40;99.90;;;;;;5051798;28;20216;-71
2022/12/21 01:22:02;;;;;;;5.03;1.73;;;7.40;99.90;;;;;;5036645;28;20185;-71
2022/12/21 01:24:28;;;;;;;2.70;1.60;;;7.30;99.90;;;;;;5027681;28;20190;-71
2022/12/21 01:26:54;;;;;;;2.43;1.30;;;7.30;99.90;;;;;;5037130;28;20190;-71
2022/12/21 01:29:19;;;;;;;3.57;1.30;;;7.20;99.90;;;;;;5053347;28;20193;-71
2022/12/21 01:31:46;;;;;;;5.20;2.20;;;7.20;99.90;;;;;;5052498;28;20470;-71
2022/12/21 01:34:11;;;;;;;12.30;2.17;;;7.20;99.90;;;;;;5042568;28;20186;-71
2022/12/21 01:36:37;;;;;;;2.40;1.73;;;7.20;99.90;;;;;;5049898;28;20424;-71
2022/12/21 01:39:03;;;;;;;2.33;1.53;;;7.20;99.90;;;;;;5053216;28;20182;-71
2022/12/21 01:41:29;;;;;;;7.40;2.00;;;7.20;99.90;;;;;;5049741;28;20647;-71
2022/12/21 01:43:56;;;;;;;3.90;2.00;;;7.20;99.90;;;;;;5042765;28;20190;-71
2022/12/21 01:46:28;;;;;;;6.27;2.47;;;7.20;99.90;;;;;;5037576;28;20278;-70
2022/12/21 01:49:00;;;;;;;3.97;1.87;;;7.20;99.90;;;;;;5053158;28;20428;-70
2022/12/21 01:51:25;;;;;;;2.67;1.93;;;7.20;99.90;;;;;;5034782;28;20529;-70
2022/12/21 01:54:07;;;;;;;3.17;1.50;;;7.20;99.90;;;;;;5041469;28;20417;-70
2022/12/21 01:56:37;;;;;;;2.30;1.37;;;7.20;99.90;;;;;;5027636;28;20170;-70
2022/12/21 01:59:12;;;;;;;4.60;2.00;;;7.20;99.90;;;;;;5052309;28;20511;-70
2022/12/21 02:01:38;;;;;;;3.40;1.80;;;7.30;99.90;;;;;;5044362;28;20420;-71
2022/12/21 02:04:06;;;;;;;3.40;1.33;;;7.30;99.90;;;;;;5050100;28;21008;-71
2022/12/21 02:06:45;;;;;;;3.33;1.43;;;7.40;99.90;;;;;;5031916;28;20193;-71
2022/12/21 02:09:13;;;;;;;3.83;1.43;;;7.40;99.90;;;;;;5043517;28;20859;-71
2022/12/21 02:11:39;;;;;;;3.00;1.50;;;7.40;99.90;;;;;;5037974;28;20461;-71
2022/12/21 02:14:13;;;;;;;3.40;1.40;;;7.40;99.90;;;;;;5048953;28;20423;-71
2022/12/21 02:17:17;;;;;;;3.63;1.77;;;7.40;99.90;;;;;;5043323;28;20184;-71
2022/12/21 02:19:52;;;;;;;3.13;1.50;;;7.40;99.90;;;;;;5028765;28;20572;-71
2022/12/21 02:22:32;;;;;;;1.70;1.20;;;7.40;99.90;;;;;;5031895;28;20432;-71
2022/12/21 02:25:16;;;;;;;2.80;1.83;;;7.40;99.90;;;;;;5024910;28;20487;-71
2022/12/21 02:28:12;;;;;;;5.57;1.90;;;7.40;99.90;;;;;;5024480;28;20770;-71
2022/12/21 02:30:50;;;;;;;4.70;1.80;;;7.50;99.90;;;;;;5027675;28;21280;-71
2022/12/21 02:33:42;;;;;;;3.27;1.80;;;7.50;99.90;;;;;;5048302;28;20417;-71
2022/12/21 02:36:22;;;;;;;4.20;1.73;;;7.50;99.90;;;;;;5043010;28;20412;-71
2022/12/21 02:39:01;;;;;;;3.33;1.43;;;7.50;99.90;;;;;;5027842;28;20429;-71
2022/12/21 02:41:34;;;;;;;2.83;1.60;;;7.60;99.90;;;;;;5051686;28;20419;-71
2022/12/21 02:44:15;;;;;;;2.27;1.60;;;7.60;99.90;;;;;;5050813;28;20911;-71
2022/12/21 02:46:52;;;;;;;3.10;2.10;;;7.60;99.90;;;;;;5049839;28;20451;-71
2022/12/21 02:49:29;;;;;;;4.50;2.00;;;7.60;99.90;;;;;;5051690;28;20466;-71
2022/12/21 02:52:04;;;;;;;4.07;1.50;;;7.60;99.90;;;;;;5051451;28;20849;-71
2022/12/21 02:54:29;;;;;;;3.87;1.50;;;7.60;99.90;;;;;;5051853;28;20427;-71
2022/12/21 02:56:55;;;;;;;2.10;1.43;;;7.60;99.90;;;;;;5051604;28;20459;-71
2022/12/21 02:59:27;;;;;;;2.90;1.57;;;7.60;99.90;;;;;;5037927;28;20251;-71
2022/12/21 03:01:52;;;;;;;2.23;1.10;;;7.50;99.90;;;;;;5050511;28;20178;-71
2022/12/21 03:04:31;;;;;;;3.23;1.57;;;7.50;99.90;;;;;;5050694;28;20732;-71
2022/12/21 03:07:05;;;;;;;4.43;1.67;;;7.60;99.90;;;;;;5039567;28;20208;-71
2022/12/21 03:09:49;;;;;;;4.80;1.27;;;7.60;99.90;;;;;;5040753;28;20421;-71
2022/12/21 03:12:39;;;;;;;3.93;1.93;;;7.60;99.90;;;;;;5037272;28;20429;-71
2022/12/21 03:15:18;;;;;;;4.23;1.97;;;7.60;99.90;;;;;;5041013;28;20898;-71
2022/12/21 03:17:45;;;;;;;3.23;1.87;;;7.60;99.90;;;;;;5049521;28;20443;-71
2022/12/21 03:20:37;;;;;;;2.90;1.20;;;7.60;99.90;;;;;;5043703;28;20422;-71
2022/12/21 03:23:14;;;;;;;1.97;1.40;;;7.60;99.90;;;;;;5038032;28;20412;-71
2022/12/21 03:26:11;;;;;;;1.80;1.10;;;7.60;99.90;;;;;;5035370;28;20445;-71
2022/12/21 03:28:40;;;;;;;3.40;1.20;;;7.60;99.90;;;;;;5031235;28;20507;-71
2022/12/21 03:31:12;;;;;;;1.80;1.03;;;7.60;99.90;;;;;;5049644;28;20505;-71
2022/12/21 03:33:43;;;;;;;3.77;1.30;;;7.50;99.90;;;;;;5050215;28;20420;-71
2022/12/21 03:36:29;;;;;;;4.93;1.10;;;7.50;99.90;;;;;;5049814;28;20518;-71
2022/12/21 03:39:03;;;;;;;7.40;1.67;;;7.50;99.90;;;;;;5050805;28;20409;-71
2022/12/21 03:41:36;;;;;;;3.40;1.20;;;7.50;99.90;;;;;;5050588;28;20424;-71
2022/12/21 03:44:08;;;;;;;5.00;1.63;;;7.50;99.90;;;;;;5049514;28;20539;-71
2022/12/21 03:46:40;;;;;;;5.27;1.80;;;7.60;99.90;;;;;;5048676;28;20435;-71
2022/12/21 03:49:14;;;;;;;2.67;1.63;;;7.50;99.90;;;;;;5039511;28;20462;-71
2022/12/21 03:51:53;;;;;;;3.63;1.20;;;7.50;99.90;;;;;;5025089;28;20475;-71
2022/12/21 03:54:41;;;;;;;2.70;1.70;;;7.50;99.90;;;;;;5050139;28;20510;-70
2022/12/21 03:57:08;;;;;;;6.07;1.90;;;7.40;99.90;;;;;;5050761;28;20500;-70
2022/12/21 03:59:36;;;;;;;2.50;1.27;;;7.40;99.90;;;;;;5044608;28;20421;-70
2022/12/21 04:02:15;;;;;;;2.57;1.37;;;7.40;99.90;;;;;;5041776;28;20428;-70
2022/12/21 04:05:02;;;;;;;3.57;1.57;;;7.40;99.90;;;;;;5024937;28;20443;-70
2022/12/21 04:07:30;;;;;;;2.10;1.37;;;7.40;99.90;;;;;;5050535;28;20424;-70
2022/12/21 04:10:05;;;;;;;3.27;1.37;;;7.40;99.90;;;;;;5036296;28;20421;-70
2022/12/21 04:12:37;;;;;;;5.83;1.80;;;7.40;99.90;;;;;;5038943;28;20423;-70
2022/12/21 04:15:16;;;;;;;10.20;1.53;;;7.40;99.90;;;;;;5040641;28;20420;-70
2022/12/21 04:17:44;;;;;;;2.00;1.03;;;7.40;99.90;;;;;;5041747;28;20984;-70
2022/12/21 04:20:18;;;;;;;2.10;1.37;;;7.40;99.90;;;;;;5037307;28;20903;-70
2022/12/21 04:28:20;;;;;;;2.90;1.30;;;7.60;99.90;;;;;;5031760;28;20459;-70
2022/12/21 04:30:46;;;;;;;2.37;1.27;;;7.50;99.90;;;;;;5049158;28;20505;-70
2022/12/21 04:33:16;;;;;;;2.60;1.33;;;7.60;99.90;;;;;;5049435;28;20499;-70
2022/12/21 04:37:30;;;;;;;2.73;1.60;;;7.60;99.90;;;;;;5050000;28;20315;-70
2022/12/21 04:38:29;;;;;;;4.50;1.17;;;7.70;99.90;;;;;;5047638;28;20416;-70
2022/12/21 04:40:56;;;;;;;2.57;1.20;;;7.70;99.90;;;;;;5051332;28;20447;-71
2022/12/21 04:43:22;;;;;;;18.60;1.50;;;7.70;99.90;;;;;;5040333;28;20947;-70
2022/12/21 04:45:48;;;;;;;2.00;1.10;;;7.70;99.90;;;;;;5050598;28;20412;-70
2022/12/21 04:48:15;;;;;;;2.90;1.37;;;7.70;99.90;;;;;;5047155;28;20413;-70
2022/12/21 04:50:42;;;;;;;2.07;1.10;;;7.80;99.90;;;;;;5033622;28;20461;-70
2022/12/21 04:53:08;;;;;;;2.80;1.17;;;7.70;99.90;;;;;;5026917;28;20428;-70
2022/12/21 04:55:33;;;;;;;2.43;1.37;;;7.80;99.90;;;;;;5053650;28;20416;-70
2022/12/21 04:57:59;;;;;;;2.90;1.23;;;7.70;99.90;;;;;;5053744;28;20184;-70
2022/12/21 05:00:24;;;;;;;1.40;0.90;;;7.80;99.90;;;;;;5046871;28;20610;-70
2022/12/21 05:02:50;;;;;;;3.17;1.33;;;7.80;99.90;;;;;;5034196;28;20231;-71
2022/12/21 05:05:16;;;;;;;3.33;1.27;;;7.90;99.90;;;;;;5053564;28;20195;-70
2022/12/21 05:07:41;;;;;;;9.07;1.20;;;7.90;99.90;;;;;;5053312;28;20208;-70
2022/12/21 05:10:08;;;;;;;1.57;0.90;;;7.90;99.90;;;;;;5038273;28;20257;-71
2022/12/21 05:12:33;;;;;;;2.17;1.10;;;7.90;99.90;;;;;;5044192;28;20177;-70
2022/12/21 05:14:59;;;;;;;2.13;1.10;;;7.90;99.90;;;;;;5041137;28;20425;-70
2022/12/21 05:17:24;;;;;;;4.83;1.60;;;7.90;99.90;;;;;;5052004;28;20595;-71
2022/12/21 05:19:50;;;;;;;1.93;1.17;;;7.90;99.90;;;;;;5049349;28;20197;-70
2022/12/21 05:22:16;;;;;;;4.90;0.83;;;7.90;99.90;;;;;;5035748;28;20186;-70
2022/12/21 05:24:45;;;;;;;1.80;0.87;;;7.90;99.90;;;;;;5045023;28;21527;-70
2022/12/21 05:27:12;;;;;;;1.70;1.03;;;7.90;99.90;;;;;;5042857;28;21121;-70
2022/12/21 05:29:37;;;;;;;1.80;1.00;;;7.90;99.90;;;;;;5039138;28;20420;-70
2022/12/21 05:32:03;;;;;;;11.23;1.90;;;7.90;99.90;;;;;;5051462;28;21005;-70
2022/12/21 05:34:29;;;;;;;2.23;1.00;;;7.90;99.90;;;;;;5053847;28;20772;-70
2022/12/21 05:36:55;;;;;;;2.23;1.33;;;7.90;99.90;;;;;;5046981;28;20425;-70
2022/12/21 05:39:20;;;;;;;1.50;0.90;;;7.90;99.90;;;;;;5042762;28;20540;-70
2022/12/21 05:41:46;;;;;;;2.00;1.33;;;7.90;99.90;;;;;;5034335;28;20328;-70
2022/12/21 05:44:11;;;;;;;2.70;1.47;;;7.90;99.90;;;;;;5050454;28;20189;-70
2022/12/21 05:46:37;;;;;;;1.60;0.90;;;7.90;99.90;;;;;;5051695;28;20277;-70
2022/12/21 05:49:03;;;;;;;3.77;1.67;;;7.90;99.90;;;;;;5040160;28;20189;-70
2022/12/21 05:51:28;;;;;;;2.67;1.40;;;7.80;99.90;;;;;;5050786;28;20224;-70
2022/12/21 05:53:54;;;;;;;3.07;1.40;;;7.90;99.90;;;;;;5052605;28;20170;-70
2022/12/21 05:56:20;;;;;;;1.50;0.90;;;7.90;99.90;;;;;;5052303;28;20211;-70
2022/12/21 05:58:46;;;;;;;3.20;1.00;;;7.90;99.90;;;;;;5052932;28;20296;-70
2022/12/21 06:01:12;;;;;;;1.50;0.80;;;7.80;99.90;;;;;;5046443;28;20499;-70
2022/12/21 06:03:39;;;;;;;2.37;1.20;;;7.90;99.90;;;;;;5032400;28;20182;-70
2022/12/21 06:06:06;;;;;;;2.13;1.03;;;7.90;99.90;;;;;;5051303;28;20562;-70
2022/12/21 06:08:32;;;;;;;3.70;1.53;;;7.90;99.90;;;;;;5051203;28;20420;-70
2022/12/21 06:11:07;;;;;;;4.07;1.50;;;8.00;99.90;;;;;;5032159;28;20475;-70
2022/12/21 06:13:33;;;;;;;5.80;1.57;;;7.90;99.90;;;;;;5039512;28;20201;-70
2022/12/21 06:16:04;;;;;;;2.53;1.23;;;7.90;99.90;;;;;;5041891;28;20490;-70
2022/12/21 06:18:29;;;;;;;7.53;1.90;;;7.90;99.90;;;;;;5043637;28;20197;-70
2022/12/21 06:20:55;;;;;;;1.87;1.13;;;7.90;99.90;;;;;;5026730;28;20438;-70
2022/12/21 06:23:21;;;;;;;2.63;1.53;;;7.90;99.90;;;;;;5029218;28;20516;-70
2022/12/21 06:25:46;;;;;;;2.37;1.20;;;7.90;99.90;;;;;;5029045;28;20193;-70
2022/12/21 06:28:12;;;;;;;1.80;1.03;;;7.90;99.90;;;;;;5023877;28;20202;-70
2022/12/21 06:30:37;;;;;;;3.23;1.63;;;8.00;99.90;;;;;;5030374;28;20221;-70
2022/12/21 06:33:03;;;;;;;2.20;1.10;;;8.00;99.90;;;;;;5031020;28;20186;-70
2022/12/21 06:35:28;;;;;;;2.27;1.23;;;8.00;99.90;;;;;;5031838;28;20846;-70
2022/12/21 06:37:54;;;;;;;2.70;1.50;;;8.00;99.90;;;;;;5031289;28;20189;-70
2022/12/21 06:40:20;;;;;;;1.90;1.40;;;8.00;99.90;;;;;;5013229;28;20291;-70
2022/12/21 06:42:46;;;;;;;6.03;1.57;;;7.90;99.90;;;;;;5031449;28;20253;-70
2022/12/21 06:45:11;;;;;;;1.73;0.77;;;7.90;99.90;;;;;;5031093;28;20784;-70
2022/12/21 06:47:37;;;;;;;1.60;0.87;;;7.90;99.90;;;;;;5031749;28;20228;-70
2022/12/21 06:50:03;;;;;;;3.83;1.83;;;7.90;99.90;;;;;;5031547;28;20182;-70
2022/12/21 06:52:31;;;;;;;3.73;1.20;;;7.90;99.90;;;;;;5031346;28;20647;-70
2022/12/21 06:54:56;;;;;;;2.00;1.07;;;7.90;99.90;;;;;;5019854;28;20182;-70
2022/12/21 06:57:22;;;;;;;3.10;1.00;;;7.90;99.90;;;;;;5003935;28;21251;-70
2022/12/21 06:59:47;;;;;;;1.40;0.80;;;7.90;99.90;;;;;;5029491;28;20189;-70
2022/12/21 07:02:13;;;;;;;3.60;1.47;;;7.90;99.90;;;;;;5029321;28;20186;-70
2022/12/21 07:04:38;;;;;;;2.87;1.33;;;7.80;99.90;;;;;;5030762;28;20649;-70
2022/12/21 07:07:04;;;;;;;7.80;1.10;;;7.90;99.90;;;;;;5030379;28;20185;-71
2022/12/21 07:09:30;;;;;;;1.57;1.00;;;7.80;99.90;;;;;;5030815;28;20718;-71
2022/12/21 07:11:55;;;;;;;2.70;1.10;;;7.90;99.90;;;;;;5030322;28;20210;-71
2022/12/21 07:14:21;;;;;;;2.33;1.30;;;7.90;99.90;;;;;;5030575;28;20182;-70
2022/12/21 07:16:46;;;;;;;1.73;0.93;;;7.90;99.90;;;;;;5031029;28;20170;-71
2022/12/21 07:19:12;;;;;;;4.07;1.20;;;7.90;99.90;;;;;;5030901;28;20245;-70
2022/12/21 07:21:37;;;;;;;1.53;0.80;;;7.90;99.90;;;;;;5030906;28;20182;-70
2022/12/21 07:24:03;;;;;;;1.40;0.90;;;7.90;99.90;;;;;;5030887;28;20216;-70
2022/12/21 07:26:29;;;;;;;1.80;1.17;;;7.90;99.90;;;;;;5031030;28;20638;-70
2022/12/21 07:28:55;;;;;;;4.03;1.00;;;7.80;99.90;;;;;;5017640;28;20229;-70
2022/12/21 07:31:24;;;;;;;2.13;1.20;;;7.90;99.90;;;;;;5030334;28;20206;-70
2022/12/21 07:33:50;;;;;;;2.90;1.37;;;7.90;99.90;;;;;;5030866;28;20424;-70
2022/12/21 07:36:16;;;;;;;3.70;1.47;;;7.90;99.90;;;;;;5030551;28;20421;-70
2022/12/21 07:38:42;;;;;;;2.60;1.13;;;7.90;99.90;;;;;;5031328;28;20212;-70
2022/12/21 07:41:12;;;;;;;3.00;1.13;;;7.90;99.90;;;;;;5030633;28;20871;-70
2022/12/21 07:43:38;;;;;;;2.23;1.00;;;7.80;99.90;;;;;;5030116;28;21094;-70
2022/12/21 07:46:04;;;;;;;2.00;1.20;;;7.80;99.90;;;;;;5029694;28;20479;-70
2022/12/21 07:48:30;;;;;;;3.07;1.30;;;7.80;99.90;;;;;;5030369;28;20417;-71
2022/12/21 07:50:56;;;;;;;2.70;1.30;;;7.80;99.90;;;;;;5030176;28;20540;-71
2022/12/21 07:53:21;;;;;;;2.60;1.33;;;7.80;99.90;;;;;;5029870;28;20501;-71
2022/12/21 07:55:47;;;;;;;6.23;1.47;;;7.80;99.90;;;;;;5030045;28;20190;-71
2022/12/21 07:58:13;;;;;;;4.03;1.10;;;7.80;99.90;;;;;;5021387;28;20222;-71
2022/12/21 08:00:39;;;;;;;2.20;1.33;;;7.80;99.90;;;;;;5028671;28;20240;-71
2022/12/21 08:03:05;;;;;;;3.43;1.80;;;7.80;99.90;;;;;;5028786;28;20214;-70
2022/12/21 08:05:31;;;;;;;16.13;1.73;;;7.80;99.90;;;;;;5029746;28;20452;-71
2022/12/21 08:07:58;;;;;;;3.43;1.83;;;7.90;99.90;;;;;;5029547;28;20417;-71
2022/12/21 08:10:25;;;;;;;5.40;2.20;;;7.80;99.90;;;;;;5029888;28;20206;-71
2022/12/21 08:12:51;;;;;;;3.73;1.60;;;7.80;99.90;;;;;;5022449;28;20437;-71
2022/12/21 08:15:16;;;;;;;5.50;2.30;;;7.80;99.90;;;;;;5027815;28;20422;-71
2022/12/21 08:17:42;;;;;;;3.47;1.67;;;7.80;99.90;;;;;;5029749;28;20190;-71
2022/12/21 08:20:08;;;;;;;2.93;1.60;;;7.70;99.90;;;;;;5030324;28;20167;-71
2022/12/21 08:22:33;;;;;;;4.33;2.40;;;7.70;99.90;;;;;;5028935;28;20234;-71
2022/12/21 08:24:59;;;;;;;6.17;3.20;;;7.70;99.90;;;;;;5030244;28;20254;-70
2022/12/21 08:27:25;;;;;;;4.70;1.50;;;7.80;99.90;;;;;;5029773;28;20202;-71
2022/12/21 08:29:50;;;;;;;5.17;2.20;;;7.80;99.90;;;;;;5029892;28;20225;-71
2022/12/21 08:32:16;;;;;;;4.00;2.37;;;7.70;99.90;;;;;;5028996;28;20222;-70
2022/12/21 08:34:41;;;;;;;3.57;2.07;;;7.80;99.90;;;;;;5019934;28;20632;-70
2022/12/21 08:37:07;;;;;;;2.70;1.90;;;7.80;99.90;;;;;;5029415;28;20192;-70
2022/12/21 08:39:33;;;;;;;3.20;1.57;;;7.80;99.90;;;;;;5017181;28;20185;-70
2022/12/21 08:41:58;;;;;;;3.60;1.50;;;7.80;99.90;;;;;;5029615;28;20186;-70
2022/12/21 08:44:24;;;;;;;2.33;1.67;;;7.80;99.90;;;;;;5029140;28;20186;-71
2022/12/21 08:46:49;;;;;;;4.77;2.40;;;7.80;99.90;;;;;;5029666;28;20698;-70
2022/12/21 08:49:15;;;;;;;2.20;1.50;;;7.80;99.90;;;;;;5029784;28;20252;-71
2022/12/21 08:51:41;;;;;;;1.97;1.37;;;7.80;99.90;;;;;;5029335;28;20202;-70
2022/12/21 08:54:07;;;;;;;6.40;1.87;;;7.80;99.90;;;;;;5029594;28;20203;-71
2022/12/21 08:56:33;;;;;;;10.83;1.73;;;7.70;99.90;;;;;;5029549;28;20174;-70
2022/12/21 08:59:04;;;;;;;4.17;1.83;;;7.70;99.90;;;;;;5029394;28;20452;-71
2022/12/21 09:01:31;;;;;;;1.80;1.23;;;7.80;99.90;;;;;;5028952;28;20425;-70
2022/12/21 09:03:56;;;;;;;4.40;1.80;;;7.80;99.90;;;;;;5029588;28;20432;-70
2022/12/21 09:06:22;;;;;;;4.63;1.60;;;7.80;99.90;;;;;;5029962;28;20413;-70
2022/12/21 09:08:48;;;;;;;4.50;2.53;;;7.70;99.90;;;;;;5029836;28;20183;-71
2022/12/21 09:11:16;;;;;;;6.07;2.30;;;7.70;99.90;;;;;;5029932;28;20251;-71
2022/12/21 09:13:42;;;;;;;3.80;1.70;;;7.70;99.90;;;;;;5029262;28;20760;-70
2022/12/21 09:16:17;;;;;;;9.80;2.20;;;7.70;99.90;;;;;;5028862;28;20439;-70
2022/12/21 09:18:43;;;;;;;3.77;2.33;;;7.70;99.90;;;;;;5016784;28;20205;-71
2022/12/21 09:21:09;;;;;;;4.17;2.60;;;7.70;99.90;;;;;;5029358;28;20907;-71
2022/12/21 09:23:35;;;;;;;2.70;1.83;;;7.70;99.90;;;;;;5029187;28;21021;-70
2022/12/21 09:26:03;;;;;;;6.10;2.20;;;7.60;99.90;;;;;;5029050;28;20492;-71
2022/12/21 09:28:28;;;;;;;4.33;2.13;;;7.70;99.90;;;;;;5033448;28;20190;-71
2022/12/21 09:30:54;;;;;;;4.13;2.17;;;7.60;99.90;;;;;;5032317;28;20483;-71
2022/12/21 09:33:23;;;;;;;4.90;2.00;;;7.70;99.90;;;;;;5032261;28;20189;-71
2022/12/21 09:35:51;;;;;;;2.17;1.47;;;7.60;99.90;;;;;;5032069;28;20774;-71
2022/12/21 09:38:17;;;;;;;4.47;2.33;;;7.70;99.90;;;;;;5024608;28;20452;-71
2022/12/21 09:40:43;;;;;;;2.70;1.57;;;7.70;99.90;;;;;;5030880;28;20433;-71
2022/12/21 09:43:37;;;;;;;3.00;1.50;;;7.70;99.90;;;;;;5022245;28;20182;-71
2022/12/21 09:46:09;;;;;;;3.93;2.30;;;7.60;99.90;;;;;;5031577;28;20513;-71
2022/12/21 09:48:42;;;;;;;2.70;1.83;;;7.70;99.90;;;;;;5032311;28;20848;-71
2022/12/21 09:51:17;;;;;;;2.33;1.47;;;7.70;99.90;;;;;;5032838;28;20479;-71
2022/12/21 09:53:49;;;;;;;3.40;1.83;;;7.60;99.90;;;;;;5032586;28;20467;-71
2022/12/21 09:56:18;;;;;;;4.17;2.20;;;7.70;99.90;;;;;;5019986;28;20412;-71
2022/12/21 09:58:51;;;;;;;3.50;1.40;;;7.70;99.90;;;;;;5032753;28;20447;-71
2022/12/21 10:01:25;;;;;;;6.70;2.37;;;7.80;99.90;;;;;;5032000;28;20417;-71
2022/12/21 10:04:11;;;;;;;6.80;2.20;;;7.80;99.90;;;;;;5032086;28;20445;-71
2022/12/21 10:06:37;;;;;;;6.83;2.60;;;7.90;99.90;;;;;;5031398;28;20413;-73
2022/12/21 10:09:19;;;;;;;2.90;1.83;;;8.00;99.90;;;;;;5031021;28;21175;-72
2022/12/21 10:12:22;;;;;;;6.20;1.67;;;8.00;99.90;;;;;;5031659;28;20608;-72
2022/12/21 10:15:29;;;;;;;3.00;1.60;;;8.10;99.90;;;;;;5029412;28;20843;-72
2022/12/21 10:18:28;;;;;;;3.73;1.50;;;8.10;99.90;;;;;;5032062;28;20440;-72
2022/12/21 10:21:29;;;;;;;14.13;1.90;;;8.20;99.90;;;;;;5024956;28;20422;-71
2022/12/21 10:23:57;;;;;;;2.70;1.60;;;8.20;99.90;;;;;;4958398;28;21030;-71
2022/12/21 10:26:27;;;;;;;4.13;2.10;;;8.20;99.90;;;;;;5019627;28;20444;-72
2022/12/21 10:29:10;;;;;;;4.43;2.53;;;8.30;99.90;;;;;;5032411;28;20419;-72
2022/12/21 10:31:44;;;;;;;7.83;3.17;;;8.50;99.90;;;;;;5030855;28;20500;-74
2022/12/21 10:34:19;;;;;;;4.57;2.23;;;8.60;99.90;;;;;;5028846;28;20902;-66
2022/12/21 10:36:47;;;;;;;5.23;2.30;;;8.60;99.90;;;;;;5026838;28;20409;-77
2022/12/21 10:39:15;;;;;;;3.40;1.70;;;8.60;99.90;;;;;;5031157;28;20432;-77
2022/12/21 10:41:45;;;;;;;2.90;1.97;;;8.50;99.90;;;;;;5032399;28;20422;-76
2022/12/21 10:44:13;;;;;;;3.90;2.67;;;8.60;99.90;;;;;;5031572;28;20449;-77
2022/12/21 10:46:38;;;;;;;2.60;1.93;;;8.70;99.90;;;;;;5031601;28;20425;-77
2022/12/21 10:49:13;;;;;;;2.90;1.70;;;8.80;99.90;;;;;;5032217;28;20426;-76
2022/12/21 10:51:39;;;;;;;7.63;2.30;;;8.70;99.90;;;;;;5031596;28;20722;-77
2022/12/21 10:54:07;;;;;;;5.50;1.67;;;8.70;99.90;;;;;;5031935;28;20417;-76
2022/12/21 10:56:46;;;;;;;8.03;2.67;;;8.60;99.90;;;;;;5031599;28;20266;-77
2022/12/21 10:59:22;;;;;;;5.17;1.87;;;8.60;99.90;;;;;;5031436;28;20413;-76
2022/12/21 11:01:48;;;;;;;5.13;2.60;;;8.60;99.90;;;;;;5031060;28;20421;-76
2022/12/21 11:04:23;;;;;;;4.70;2.57;;;8.60;99.90;;;;;;5031474;28;20495;-76
2022/12/21 11:07:28;;;;;;;4.50;2.47;;;8.80;99.90;;;;;;5031398;28;20416;-76
2022/12/21 11:10:17;;;;;;;4.87;2.47;;;8.80;99.90;;;;;;5031156;28;20957;-76
2022/12/21 11:12:50;;;;;;;5.10;2.23;;;8.80;99.90;;;;;;5030486;28;20437;-75
2022/12/21 11:15:23;;;;;;;2.80;1.67;;;8.90;99.90;;;;;;5030025;28;20425;-76
2022/12/21 11:17:48;;;;;;;3.90;2.63;;;9.00;99.90;;;;;;5030422;28;20445;-75
2022/12/21 11:20:20;;;;;;;6.33;2.40;;;9.30;99.90;;;;;;5030502;28;20429;-76
2022/12/21 11:22:47;;;;;;;3.90;1.77;;;9.50;99.90;;;;;;5031150;28;20178;-75
2022/12/21 11:25:33;;;;;;;4.60;1.47;;;9.60;99.90;;;;;;5030487;28;20421;-75
2022/12/21 11:28:01;;;;;;;4.43;2.13;;;9.60;99.90;;;;;;5030768;28;20433;-75
2022/12/21 11:30:35;;;;;;;2.90;1.57;;;9.60;99.90;;;;;;5030044;28;20501;-75
2022/12/21 11:33:02;;;;;;;18.00;2.53;;;9.60;99.90;;;;;;5030354;28;20448;-75
2022/12/21 11:35:30;;;;;;;3.87;1.87;;;9.40;99.90;;;;;;5030785;28;20414;-75
2022/12/21 11:38:02;;;;;;;2.00;1.30;;;9.20;99.90;;;;;;5030565;28;20495;-75
2022/12/21 11:40:29;;;;;;;2.07;1.57;;;9.10;99.90;;;;;;5029643;28;20417;-75
2022/12/21 11:43:13;;;;;;;3.20;1.27;;;9.00;99.90;;;;;;5022530;28;20540;-75
2022/12/21 11:45:50;;;;;;;3.23;1.53;;;9.00;99.90;;;;;;5023412;28;21089;-74
2022/12/21 11:48:35;;;;;;;2.80;2.00;;;9.10;99.90;;;;;;5017779;28;20592;-75
2022/12/21 11:51:10;;;;;;;3.80;1.70;;;9.30;99.90;;;;;;5030348;28;20551;-75
2022/12/21 11:53:54;;;;;;;4.13;1.90;;;9.50;99.90;;;;;;5029591;28;20417;-75
2022/12/21 11:56:39;;;;;;;7.13;1.60;;;9.60;99.90;;;;;;5030660;28;20433;-74
2022/12/21 11:59:11;;;;;;;1.93;1.50;;;9.60;99.90;;;;;;5030172;28;20512;-75
2022/12/21 12:01:36;;;;;;;4.37;1.40;;;9.50;99.90;;;;;;5029899;28;20405;-75
2022/12/21 12:04:11;;;;;;;3.13;1.60;;;9.50;99.90;;;;;;5030026;28;20925;-75
2022/12/21 12:07:03;;;;;;;3.40;1.77;;;9.40;99.90;;;;;;5030509;28;20277;-75
2022/12/21 12:09:43;;;;;;;2.23;1.30;;;9.40;99.90;;;;;;5019992;28;20512;-75
2022/12/21 12:12:12;;;;;;;2.03;1.07;;;9.30;99.90;;;;;;5029566;28;20607;-75
2022/12/21 12:14:51;;;;;;;2.87;1.03;;;9.30;99.90;;;;;;5029779;28;20768;-73
2022/12/21 12:17:42;;;;;;;1.77;1.03;;;9.30;99.90;;;;;;5029695;28;20417;-75
2022/12/21 12:20:10;;;;;;;3.20;1.37;;;9.20;99.90;;;;;;5030066;28;20432;-75
2022/12/21 12:22:42;;;;;;;2.10;1.27;;;9.20;99.90;;;;;;5023859;28;20785;-75
2022/12/21 12:25:45;;;;;;;3.20;1.40;;;9.30;99.90;;;;;;5023650;28;20619;-75
2022/12/21 12:28:46;;;;;;;5.97;1.47;;;9.20;99.90;;;;;;5012495;28;20893;-75
2022/12/21 12:31:37;;;;;;;2.10;1.27;;;9.20;99.90;;;;;;4999220;28;20471;-74
2022/12/21 12:34:30;;;;;;;3.70;1.30;;;9.20;99.90;;;;;;5029705;28;20413;-74
2022/12/21 12:37:22;;;;;;;2.80;1.60;;;9.20;99.90;;;;;;5026143;28;20413;-74
2022/12/21 12:40:14;;;;;;;2.23;1.60;;;9.30;99.90;;;;;;5028702;28;20417;-74
2022/12/21 12:43:00;;;;;;;2.33;1.37;;;9.30;99.90;;;;;;5026035;28;20471;-75
2022/12/21 12:45:43;;;;;;;2.33;1.47;;;9.30;99.90;;;;;;5021489;28;20425;-74
2022/12/21 12:48:35;;;;;;;3.47;1.20;;;9.30;99.90;;;;;;5029753;28;20413;-75
2022/12/21 12:51:32;;;;;;;2.40;1.50;;;9.40;99.90;;;;;;4988393;28;20526;-75
2022/12/21 12:54:04;;;;;;;6.50;1.73;;;9.40;99.90;;;;;;4998542;28;20428;-74
2022/12/21 12:56:56;;;;;;;2.40;1.43;;;9.40;99.90;;;;;;5029866;28;20484;-74
2022/12/21 12:59:49;;;;;;;2.30;1.60;;;9.40;99.90;;;;;;5029081;28;20925;-74
2022/12/21 13:02:25;;;;;;;2.47;1.33;;;9.40;99.90;;;;;;5030971;28;20499;-74
2022/12/21 13:05:09;;;;;;;3.60;1.70;;;9.50;99.90;;;;;;5033758;28;20413;-74
2022/12/21 13:07:50;;;;;;;2.80;1.27;;;9.50;99.90;;;;;;5033652;28;20788;-74
2022/12/21 13:10:43;;;;;;;2.60;1.60;;;9.50;99.90;;;;;;5032894;28;20474;-74
2022/12/21 13:13:27;;;;;;;2.07;0.97;;;9.50;99.90;;;;;;5032803;28;20417;-74
2022/12/21 13:16:12;;;;;;;1.57;0.83;;;9.60;99.90;;;;;;5028871;28;20448;-74
2022/12/21 13:19:04;;;;;;;2.20;1.00;;;9.60;99.90;;;;;;5032617;28;20433;-74
2022/12/21 13:21:32;;;;;;;1.97;0.90;;;9.60;99.90;;;;;;5032497;28;20752;-74
2022/12/21 13:24:15;;;;;;;3.07;1.37;;;9.60;99.90;;;;;;5033027;28;20487;-73
2022/12/21 13:26:52;;;;;;;2.80;1.63;;;9.60;99.90;;;;;;5032900;28;20417;-73